TimeCST,TemperatureF,Dew PointF,Humidity,Sea Level PressureIn,VisibilityMPH,Wind Direction,Wind SpeedMPH,Gust SpeedMPH,PrecipitationIn,Events,Conditions,WindDirDegrees,DateUTC
12:53 AM,32.0,25.0,75,30.44,10.0,Calm,Calm,-,N/A,,Clear,0,2012-11-17 06:53:00
1:53 AM,32.0,26.1,79,30.44,10.0,Calm,Calm,-,N/A,,Clear,0,2012-11-17 07:53:00
2:53 AM,30.0,25.0,82,30.45,10.0,Calm,Calm,-,N/A,,Clear,0,2012-11-17 08:53:00
4:53 AM,28.0,23.0,81,30.45,10.0,NE,3.5,-,N/A,,Clear,50,2012-11-17 10:53:00
5:53 AM,30.9,24.1,76,30.47,10.0,Calm,Calm,-,N/A,,Clear,0,2012-11-17 11:53:00
6:53 AM,28.9,23.0,78,30.48,10.0,Calm,Calm,-,N/A,,Clear,0,2012-11-17 12:53:00
7:53 AM,36.0,28.0,73,30.49,10.0,NE,3.5,-,N/A,,Clear,50,2012-11-17 13:53:00
8:53 AM,44.1,30.0,58,30.49,10.0,East,5.8,-,N/A,,Clear,100,2012-11-17 14:53:00
9:53 AM,46.9,28.9,50,30.49,10.0,ESE,8.1,-,N/A,,Clear,110,2012-11-17 15:53:00
10:53 AM,51.1,26.1,38,30.49,10.0,SSE,5.8,-,N/A,,Clear,160,2012-11-17 16:53:00
11:53 AM,54.0,26.1,34,30.45,10.0,Calm,Calm,-,N/A,,Clear,0,2012-11-17 17:53:00
12:53 PM,55.9,27.0,33,30.43,10.0,South,5.8,-,N/A,,Clear,180,2012-11-17 18:53:00
1:53 PM,57.9,26.1,30,30.40,10.0,Calm,Calm,-,N/A,,Clear,0,2012-11-17 19:53:00
2:53 PM,57.9,26.1,30,30.40,10.0,SSE,6.9,-,N/A,,Clear,160,2012-11-17 20:53:00
3:53 PM,57.9,27.0,31,30.39,10.0,Calm,Calm,-,N/A,,Clear,0,2012-11-17 21:53:00
4:53 PM,54.0,26.1,34,30.39,10.0,ESE,3.5,-,N/A,,Clear,120,2012-11-17 22:53:00
5:53 PM,48.9,24.1,38,30.38,10.0,Calm,Calm,-,N/A,,Clear,0,2012-11-17 23:53:00
6:53 PM,44.1,24.1,45,30.39,10.0,Calm,Calm,-,N/A,,Clear,0,2012-11-18 00:53:00
7:53 PM,43.0,24.1,47,30.40,9.0,SSE,3.5,-,N/A,,Clear,160,2012-11-18 01:53:00
8:53 PM,39.0,27.0,62,30.41,10.0,SSE,3.5,-,N/A,,Clear,160,2012-11-18 02:53:00
9:53 PM,35.1,25.0,67,30.42,10.0,Calm,Calm,-,N/A,,Clear,0,2012-11-18 03:53:00
10:53 PM,37.0,25.0,62,30.39,10.0,ESE,8.1,-,N/A,,Clear,120,2012-11-18 04:53:00
11:53 PM,39.9,27.0,60,30.39,10.0,East,3.5,-,N/A,,Clear,100,2012-11-18 05:53:00